アスンシオン の空港の天気 - METARとTAF

シルビオ・ペッティロッシ国際空港 ( SGAS / ASU ) - パラグアイ アスンシオン
飛行場実況気象(Metar)
観測時間12/01 21:00 PYST (12/02 00:00 UTC)
風向・風速不定 1m/s
視程10km以上
天気現象周辺で雷
少しの雲 雲底高度 1220m
気温27℃
湿度84%
気圧1008hPa
METARSGAS 020000Z VRB02KT 9999 VCTS FEW040CB 27/24 Q1008
過去の天気等 Google飛行場航空写真 Wunderground天気予報

過去48時間のMETAR

飛行場予報(TAF)
発表時間: 12/01 19:18 PYST (12/01 22:18 UTC)
予報対象時間: 1日21時 PYST ~ 2日21時 PYST
風向・風速不定 1m/s
視程10km以上
全天の4割程度の雲 雲底高度 1010m
2日1時 PYST ~ 2日3時 PYST に徐々に
風向・風速北東 3m/s
視程10km以上
全天の8割程度の雲 雲底高度 820m
1日5時 PYST ~ 1日7時 PYST に徐々に
風向・風速南南西 5m/s 瞬間風速 10m/s
視程5000m
天気現象雷雨
全天を覆う雲 雲底高度 460m
少しの積乱雲 雲底高度 1220m
2日11時 PYST ~ 2日13時 PYST に徐々に
視程10km以上
全天の8割程度の雲 雲底高度 610m
2日15時 PYST から 確率 40% で
風向・風速南南西 8m/s
視程3000m
天気現象雷雨
全天を覆う雲 雲底高度 370m
少しの積乱雲 雲底高度 1220m
TAF SGAS 012218Z 0200/0300 VRB02KT 9999 SCT033 TX33/0219Z TN22/0209Z
BECMG 0204/0206 04005KT 9999 BKN027
BECMG 0108/0110 21010G20KT 5000 TSRA OVC015 FEW040CB
BECMG 0214/0216 9999 BKN020
PROB40 0218/0221 21015KT 3000 TSRA OVC012 FEW040CB